Skip Navigation LinksHome page > Weather > Current weather Skip Navigation Links

Current Weather

Ronald Reagan Washington National, Washington

For information only: do not use for flight planning or navigation.
Latest weather
Observation time Saturday, October 19, 2019 5:52 AM EDT
Local time Saturday, October 19, 2019 6:20 AM EDT
Flight conditions Visual Meteorological Conditions
Winds
Wind direction North-Northwest (340°)
Wind speed 3 mph
Visibility 10 mi.
Sky condition
Ceiling unlimited
Sky clear
Temperature 46°F
Dewpoint 41°F
Altimeter 30.11 in.Hg
Derived measurements
Relative humidity 82%
Wind chill 45°F
Density altitude -939 ft.
Sea-level pressure 30.11 in.Hg
Remarks
System requires maintenance.
Automated weather observing station with precipitation discriminator.
METAR KDCA 190952Z 34003KT 10SM CLR 08/05 A3011 RMK AO2 SLP197 T00780050 $

Settings

Location code

InnerDrive.Weather 4.0.6770.0 Release CLR 4.0.30319.42000
Copyright ©2018 Inner Drive Technology. All rights reserved. Portions Copyright ©1986-2018 David Braverman.

Find weather

Site navigation


Skip Navigation Links

Place info

Page info

PayPal - The safer, easier way to pay online!

Return home.

Copyright ©2019 Inner Drive Technology. Purveyors of fine, hand-crafted computer software. Page printed 2019-10-19T10:20:34 UTC.